Purki — 9HA2386 — position and weather

sailwx.info

Track history (hours):
 
Tides and Currents Weather Stations Pressure Air Temp Water Temp Dewpoint Dewpoint Depression Visibility Wind Speed Wind Dir Waves Ship Positions

Purki

Last reported at 2016-Jul-07 08:33 UTC. Time now 2016-Jul-24 20:23 UTC.
Position N 37°03' E 023°51'.
Warning: this ship's position is 17 days out of date.

Length 146 m; draft 5.1 m.

Type: Cargo ship. MMSI: 248495000.

Date/timePositionNaut miles runAvg speedWind from/ knotsBaromVisibWave heightAir tempDewpointWater temp
2016-Jul-07 08:33N 37°03' E 023°51'1611.7
2016-Jul-07 07:12N 36°52' E 023°38'2111.8
2016-Jul-07 05:26N 36°35' E 023°22'1211.7
2016-Jul-07 04:25N 36°25' E 023°14'39712.5
2016-Jul-05 20:33N 36°33' E 014°60'1313.0
2016-Jul-05 19:33N 36°37' E 014°44'1312.8
2016-Jul-05 18:33N 36°40' E 014°29'1313.3
2016-Jul-05 17:33N 36°43' E 014°13'1413.8
2016-Jul-05 16:34N 36°46' E 013°56'1313.4
2016-Jul-05 15:34N 36°50' E 013°40'1313.4
2016-Jul-05 14:34N 36°53' E 013°23'1313.0
2016-Jul-05 13:34N 36°55' E 013°07'1312.5
2016-Jul-05 12:33N 36°59' E 012°52'1010.5
2016-Jul-05 11:34N 37°02' E 012°40'1212.0
2016-Jul-05 10:34N 37°04' E 012°25'1212.0
2016-Jul-05 09:34N 37°07' E 012°10'1212.3
2016-Jul-05 08:34N 37°10' E 011°55'1212.5
2016-Jul-05 07:34N 37°14' E 011°40'5612.6
2016-Jul-05 03:07N 37°30' E 010°33'712.7
2016-Jul-05 02:32N 37°31' E 010°24'1312.7
2016-Jul-05 01:32N 37°33' E 010°08'1212.5
2016-Jul-05 00:33N 37°31' E 009°53'1912.8
2016-Jul-04 23:05N 37°26' E 009°30'4512.2
2016-Jul-04 19:23N 37°15' E 008°35'12411.4
2016-Jul-04 08:34N 37°12' E 005°60'6510.6
2016-Jul-04 02:27N 37°05' E 004°39'910.2
2016-Jul-04 01:33N 37°04' E 004°28'4310.1
2016-Jul-03 21:16N 36°57' E 003°34'7 9.4
2016-Jul-03 20:33N 36°55' E 003°26'10 9.7
2016-Jul-03 19:33N 36°53' E 003°15'9 9.4
2016-Jul-03 18:33N 36°47' E 003°06'2 0.4
2016-Jul-03 14:05N 36°46' E 003°04'0 0.0
2016-Jul-03 13:29N 36°46' E 003°04'0 0.0
2016-Jul-02 22:32N 36°46' E 003°04'0 0.0
2016-Jul-02 21:20N 36°46' E 003°04'2 2.2
2016-Jul-02 20:33N 36°46' E 003°06'1 0.5
2016-Jul-02 19:23N 36°46' E 003°07'0 0.0
2016-Jul-02 18:32N 36°46' E 003°07'0 0.0
2016-Jul-02 11:32N 36°46' E 003°07'0 0.1
2016-Jul-02 10:32N 36°46' E 003°07'0 0.0
2016-Jul-02 08:05N 36°46' E 003°07'0 0.0
2016-Jul-02 07:29N 36°46' E 003°07'0 0.0
2016-Jul-02 06:29N 36°46' E 003°07'0 0.0
2016-Jul-02 04:32N 36°46' E 003°07'0 0.0
2016-Jul-02 02:14N 36°46' E 003°07'0 0.0
2016-Jul-02 01:05N 36°46' E 003°07'0 0.0
2016-Jul-02 00:32N 36°46' E 003°07'0 0.0
2016-Jul-01 23:11N 36°46' E 003°07'0 0.0
2016-Jul-01 22:32N 36°46' E 003°07'0 0.0
2016-Jul-01 20:29N 36°46' E 003°07'0 0.0
2016-Jul-01 17:26N 36°46' E 003°07'0 0.0
2016-Jul-01 13:20N 36°46' E 003°07'0 0.0
2016-Jul-01 12:32N 36°46' E 003°07'0 0.0
2016-Jul-01 11:23N 36°46' E 003°07'0 0.0
2016-Jul-01 07:08N 36°46' E 003°07'0 0.0
2016-Jul-01 06:26N 36°46' E 003°07'0 0.0
2016-Jul-01 03:32N 36°46' E 003°07'0 0.0
2016-Jul-01 02:11N 36°46' E 003°07'0 0.1
2016-Jul-01 01:32N 36°46' E 003°07'0 0.1
2016-Jul-01 00:32N 36°46' E 003°07'0 0.0
2016-Jun-30 23:33N 36°46' E 003°07'5 5.4
2016-Jun-30 22:33N 36°51' E 003°05'1010.1
2016-Jun-30 21:33N 36°59' E 002°57'9 8.6
2016-Jun-30 20:33N 37°04' E 002°48'1211.7
2016-Jun-30 19:33N 37°12' E 002°38'1211.6
2016-Jun-30 18:33N 37°20' E 002°27'1211.7
2016-Jun-30 17:33N 37°29' E 002°17'1411.8
2016-Jun-30 16:22N 37°39' E 002°04'1012.0
2016-Jun-30 15:33N 37°46' E 001°56'1211.8
2016-Jun-30 14:32N 37°55' E 001°46'1111.6
2016-Jun-30 13:33N 38°03' E 001°36'1211.7
2016-Jun-30 12:31N 38°12' E 001°25'1111.7
2016-Jun-30 11:33N 38°20' E 001°15'1111.6
2016-Jun-30 10:33N 38°28' E 001°05'1411.4
2016-Jun-30 09:18N 38°39' E 000°53'911.2
2016-Jun-30 08:32N 38°44' E 000°44'1111.5
2016-Jun-30 07:33N 38°52' E 000°34'4711.5
2016-Jun-30 03:29N 39°22' W 000°13'7 7.9
2016-Jun-30 02:33N 39°27' W 000°19'0 0.0
2016-Jun-30 01:18N 39°27' W 000°19'0 0.0
2016-Jun-30 00:33N 39°27' W 000°19'0 0.0
2016-Jun-29 23:34N 39°27' W 000°19'0 0.0
2016-Jun-29 22:33N 39°27' W 000°19'0 0.0
2016-Jun-29 21:33N 39°27' W 000°19'0 0.0
2016-Jun-29 20:33N 39°27' W 000°19'0 0.0
2016-Jun-29 19:33N 39°27' W 000°19'0 0.0
2016-Jun-29 18:33N 39°27' W 000°19'0 0.0
2016-Jun-29 17:32N 39°27' W 000°19'0 0.0
2016-Jun-29 16:33N 39°27' W 000°19'0 0.0
2016-Jun-29 15:33N 39°27' W 000°19'0 0.0
2016-Jun-29 14:34N 39°27' W 000°19'0 0.0
2016-Jun-29 13:33N 39°27' W 000°19'1 1.2
2016-Jun-29 12:33N 39°26' W 000°19'13 3.2
2016-Jun-29 08:32N 39°27' W 000°02'4 3.2
2016-Jun-29 07:25N 39°30' W 000°00'1012.0
2016-Jun-29 06:34N 39°38' E 000°08'1211.9
2016-Jun-29 05:34N 39°47' E 000°17'1211.8
2016-Jun-29 04:33N 39°57' E 000°27'1211.8
2016-Jun-29 03:33N 40°05' E 000°38'1211.8
2016-Jun-29 02:33N 40°13' E 000°49'1411.9
2016-Jun-29 01:24N 40°22' E 001°03'1012.1
2016-Jun-29 00:33N 40°29' E 001°13'1212.3
2016-Jun-28 23:33N 40°37' E 001°26'1212.5
2016-Jun-28 22:33N 40°44' E 001°38'1312.7
2016-Jun-28 21:33N 40°53' E 001°51'1312.8
2016-Jun-28 20:33N 41°02' E 002°03'1212.3
2016-Jun-28 19:33N 41°13' E 002°10'9 1.8
2016-Jun-28 14:33N 41°21' E 002°10'0 0.0
2016-Jun-28 13:33N 41°21' E 002°10'0 0.0
2016-Jun-28 11:33N 41°21' E 002°10'0 0.0
2016-Jun-28 07:33N 41°21' E 002°10'5 4.6
2016-Jun-28 06:33N 41°17' E 002°13'16 7.3
2016-Jun-28 04:21N 41°20' E 002°34'1012.1
2016-Jun-28 03:32N 41°25' E 002°45'1212.1
2016-Jun-28 02:33N 41°31' E 002°59'3612.1
2016-Jun-27 23:33N 41°48' E 003°42'2411.7
2016-Jun-27 21:32N 41°59' E 004°10'1211.6
2016-Jun-27 20:31N 42°04' E 004°24'  
Track history (hours):
 
Tides and Currents Weather Stations Pressure Air Temp Water Temp Dewpoint Dewpoint Depression Visibility Wind Speed Wind Dir Waves Ship Positions

Purki

Last reported at 2016-Jul-07 08:33 UTC. Time now 2016-Jul-24 20:23 UTC.
Position N 37°03' E 023°51'.
Warning: this ship's position is 17 days out of date.

Length 146 m; draft 5.1 m.

Type: Cargo ship. MMSI: 248495000.

Date/timePositionNaut miles runAvg speedWind from/ knotsBaromVisibWave heightAir tempDewpointWater temp
2016-Jul-07 08:33N 37°03' E 023°51'1611.7
2016-Jul-07 07:12N 36°52' E 023°38'2111.8
2016-Jul-07 05:26N 36°35' E 023°22'1211.7
2016-Jul-07 04:25N 36°25' E 023°14'39712.5
2016-Jul-05 20:33N 36°33' E 014°60'1313.0
2016-Jul-05 19:33N 36°37' E 014°44'1312.8
2016-Jul-05 18:33N 36°40' E 014°29'1313.3
2016-Jul-05 17:33N 36°43' E 014°13'1413.8
2016-Jul-05 16:34N 36°46' E 013°56'1313.4
2016-Jul-05 15:34N 36°50' E 013°40'1313.4
2016-Jul-05 14:34N 36°53' E 013°23'1313.0
2016-Jul-05 13:34N 36°55' E 013°07'1312.5
2016-Jul-05 12:33N 36°59' E 012°52'1010.5
2016-Jul-05 11:34N 37°02' E 012°40'1212.0
2016-Jul-05 10:34N 37°04' E 012°25'1212.0
2016-Jul-05 09:34N 37°07' E 012°10'1212.3
2016-Jul-05 08:34N 37°10' E 011°55'1212.5
2016-Jul-05 07:34N 37°14' E 011°40'5612.6
2016-Jul-05 03:07N 37°30' E 010°33'712.7
2016-Jul-05 02:32N 37°31' E 010°24'1312.7
2016-Jul-05 01:32N 37°33' E 010°08'1212.5
2016-Jul-05 00:33N 37°31' E 009°53'1912.8
2016-Jul-04 23:05N 37°26' E 009°30'4512.2
2016-Jul-04 19:23N 37°15' E 008°35'12411.4
2016-Jul-04 08:34N 37°12' E 005°60'6510.6
2016-Jul-04 02:27N 37°05' E 004°39'910.2
2016-Jul-04 01:33N 37°04' E 004°28'4310.1
2016-Jul-03 21:16N 36°57' E 003°34'7 9.4
2016-Jul-03 20:33N 36°55' E 003°26'10 9.7
2016-Jul-03 19:33N 36°53' E 003°15'9 9.4
2016-Jul-03 18:33N 36°47' E 003°06'2 0.4
2016-Jul-03 14:05N 36°46' E 003°04'0 0.0
2016-Jul-03 13:29N 36°46' E 003°04'0 0.0
2016-Jul-02 22:32N 36°46' E 003°04'0 0.0
2016-Jul-02 21:20N 36°46' E 003°04'2 2.2
2016-Jul-02 20:33N 36°46' E 003°06'1 0.5
2016-Jul-02 19:23N 36°46' E 003°07'0 0.0
2016-Jul-02 18:32N 36°46' E 003°07'0 0.0
2016-Jul-02 11:32N 36°46' E 003°07'0 0.1
2016-Jul-02 10:32N 36°46' E 003°07'0 0.0
2016-Jul-02 08:05N 36°46' E 003°07'0 0.0
2016-Jul-02 07:29N 36°46' E 003°07'0 0.0
2016-Jul-02 06:29N 36°46' E 003°07'0 0.0
2016-Jul-02 04:32N 36°46' E 003°07'0 0.0
2016-Jul-02 02:14N 36°46' E 003°07'0 0.0
2016-Jul-02 01:05N 36°46' E 003°07'0 0.0
2016-Jul-02 00:32N 36°46' E 003°07'0 0.0
2016-Jul-01 23:11N 36°46' E 003°07'0 0.0
2016-Jul-01 22:32N 36°46' E 003°07'0 0.0
2016-Jul-01 20:29N 36°46' E 003°07'0 0.0
2016-Jul-01 17:26N 36°46' E 003°07'0 0.0
2016-Jul-01 13:20N 36°46' E 003°07'0 0.0
2016-Jul-01 12:32N 36°46' E 003°07'0 0.0
2016-Jul-01 11:23N 36°46' E 003°07'0 0.0
2016-Jul-01 07:08N 36°46' E 003°07'0 0.0
2016-Jul-01 06:26N 36°46' E 003°07'0 0.0
2016-Jul-01 03:32N 36°46' E 003°07'0 0.0
2016-Jul-01 02:11N 36°46' E 003°07'0 0.1
2016-Jul-01 01:32N 36°46' E 003°07'0 0.1
2016-Jul-01 00:32N 36°46' E 003°07'0 0.0
2016-Jun-30 23:33N 36°46' E 003°07'5 5.4
2016-Jun-30 22:33N 36°51' E 003°05'1010.1
2016-Jun-30 21:33N 36°59' E 002°57'9 8.6
2016-Jun-30 20:33N 37°04' E 002°48'1211.7
2016-Jun-30 19:33N 37°12' E 002°38'1211.6
2016-Jun-30 18:33N 37°20' E 002°27'1211.7
2016-Jun-30 17:33N 37°29' E 002°17'1411.8
2016-Jun-30 16:22N 37°39' E 002°04'1012.0
2016-Jun-30 15:33N 37°46' E 001°56'1211.8
2016-Jun-30 14:32N 37°55' E 001°46'1111.6
2016-Jun-30 13:33N 38°03' E 001°36'1211.7
2016-Jun-30 12:31N 38°12' E 001°25'1111.7
2016-Jun-30 11:33N 38°20' E 001°15'1111.6
2016-Jun-30 10:33N 38°28' E 001°05'1411.4
2016-Jun-30 09:18N 38°39' E 000°53'911.2
2016-Jun-30 08:32N 38°44' E 000°44'1111.5
2016-Jun-30 07:33N 38°52' E 000°34'4711.5
2016-Jun-30 03:29N 39°22' W 000°13'7 7.9
2016-Jun-30 02:33N 39°27' W 000°19'0 0.0
2016-Jun-30 01:18N 39°27' W 000°19'0 0.0
2016-Jun-30 00:33N 39°27' W 000°19'0 0.0
2016-Jun-29 23:34N 39°27' W 000°19'0 0.0
2016-Jun-29 22:33N 39°27' W 000°19'0 0.0
2016-Jun-29 21:33N 39°27' W 000°19'0 0.0
2016-Jun-29 20:33N 39°27' W 000°19'0 0.0
2016-Jun-29 19:33N 39°27' W 000°19'0 0.0
2016-Jun-29 18:33N 39°27' W 000°19'0 0.0
2016-Jun-29 17:32N 39°27' W 000°19'0 0.0
2016-Jun-29 16:33N 39°27' W 000°19'0 0.0
2016-Jun-29 15:33N 39°27' W 000°19'0 0.0
2016-Jun-29 14:34N 39°27' W 000°19'0 0.0
2016-Jun-29 13:33N 39°27' W 000°19'1 1.2
2016-Jun-29 12:33N 39°26' W 000°19'13 3.2
2016-Jun-29 08:32N 39°27' W 000°02'4 3.2
2016-Jun-29 07:25N 39°30' W 000°00'1012.0
2016-Jun-29 06:34N 39°38' E 000°08'1211.9
2016-Jun-29 05:34N 39°47' E 000°17'1211.8
2016-Jun-29 04:33N 39°57' E 000°27'1211.8
2016-Jun-29 03:33N 40°05' E 000°38'1211.8
2016-Jun-29 02:33N 40°13' E 000°49'1411.9
2016-Jun-29 01:24N 40°22' E 001°03'1012.1
2016-Jun-29 00:33N 40°29' E 001°13'1212.3
2016-Jun-28 23:33N 40°37' E 001°26'1212.5
2016-Jun-28 22:33N 40°44' E 001°38'1312.7
2016-Jun-28 21:33N 40°53' E 001°51'1312.8
2016-Jun-28 20:33N 41°02' E 002°03'1212.3
2016-Jun-28 19:33N 41°13' E 002°10'9 1.8
2016-Jun-28 14:33N 41°21' E 002°10'0 0.0
2016-Jun-28 13:33N 41°21' E 002°10'0 0.0
2016-Jun-28 11:33N 41°21' E 002°10'0 0.0
2016-Jun-28 07:33N 41°21' E 002°10'5 4.6
2016-Jun-28 06:33N 41°17' E 002°13'16 7.3
2016-Jun-28 04:21N 41°20' E 002°34'1012.1
2016-Jun-28 03:32N 41°25' E 002°45'1212.1
2016-Jun-28 02:33N 41°31' E 002°59'3612.1
2016-Jun-27 23:33N 41°48' E 003°42'2411.7
2016-Jun-27 21:32N 41°59' E 004°10'1211.6
2016-Jun-27 20:31N 42°04' E 004°24'  

Dump ship's entire track history